Time;durP1;ratioP1;P1;durP2;ratioP2;P2;SDS_P1;SDS_P2;PMS_P1;PMS_P2;Temp;Humidity;BMP_temperature;BMP_pressure;BME280_temperature;BME280_humidity;BME280_pressure;Samples;Min_cycle;Max_cycle;Signal;HPM_P1;HPM_P2
2021/01/31 00:00:39;;;;;;;55.80;26.08;;;2.60;99.90;;;;;;5015101;28;20030;-76
2021/01/31 00:03:08;;;;;;;57.33;24.33;;;2.60;99.90;;;;;;4997335;28;20026;-76
2021/01/31 00:05:34;;;;;;;53.50;25.73;;;2.60;99.90;;;;;;5014754;28;20296;-76
2021/01/31 00:07:59;;;;;;;52.28;25.95;;;2.50;99.90;;;;;;5014567;28;20062;-76
2021/01/31 00:10:31;;;;;;;57.60;26.50;;;2.50;99.90;;;;;;5014830;28;20018;-76
2021/01/31 00:12:58;;;;;;;55.63;26.03;;;2.50;99.90;;;;;;4997034;28;20392;-76
2021/01/31 00:15:27;;;;;;;52.28;25.48;;;2.40;99.90;;;;;;5014640;28;20101;-76
2021/01/31 00:17:53;;;;;;;58.22;26.27;;;2.40;99.90;;;;;;4997194;28;20032;-75
2021/01/31 00:20:24;;;;;;;55.63;25.90;;;2.40;99.90;;;;;;5014658;28;20026;-75
2021/01/31 00:22:50;;;;;;;56.60;26.50;;;2.40;99.90;;;;;;4996967;28;20033;-75
2021/01/31 00:25:17;;;;;;;57.90;27.63;;;2.40;99.90;;;;;;5014590;28;20034;-75
2021/01/31 00:27:42;;;;;;;51.88;25.52;;;2.40;99.90;;;;;;5014415;28;20103;-75
2021/01/31 00:30:16;;;;;;;56.10;27.20;;;2.40;99.90;;;;;;5014270;28;20469;-77
2021/01/31 00:32:42;;;;;;;62.70;28.55;;;2.50;99.90;;;;;;5014522;28;20102;-75
2021/01/31 00:35:08;;;;;;;55.97;27.65;;;2.50;99.90;;;;;;5014303;28;20104;-76
2021/01/31 00:37:34;;;;;;;56.90;27.27;;;2.40;99.90;;;;;;5014488;28;20057;-76
2021/01/31 00:40:00;;;;;;;57.88;26.17;;;2.50;99.90;;;;;;4996654;28;20413;-76
2021/01/31 00:42:26;;;;;;;59.65;28.73;;;2.50;99.90;;;;;;5014772;28;20030;-76
2021/01/31 00:44:52;;;;;;;64.10;29.75;;;2.50;99.90;;;;;;4996675;28;20167;-76
2021/01/31 00:47:20;;;;;;;62.85;28.95;;;2.50;99.90;;;;;;5014028;28;20033;-75
2021/01/31 00:49:47;;;;;;;56.30;27.05;;;2.50;99.90;;;;;;4996297;28;20069;-75
2021/01/31 00:52:13;;;;;;;56.15;26.52;;;2.50;99.90;;;;;;5014067;28;20026;-75
2021/01/31 00:54:38;;;;;;;54.22;26.30;;;2.60;99.90;;;;;;5013567;28;20022;-76
2021/01/31 00:57:05;;;;;;;53.28;26.58;;;2.60;99.90;;;;;;5013662;28;20042;-76
2021/01/31 00:59:31;;;;;;;55.83;26.42;;;2.60;99.90;;;;;;5013486;28;20022;-75
2021/01/31 01:01:57;;;;;;;53.65;26.02;;;2.60;99.90;;;;;;5013612;28;20036;-76
2021/01/31 01:04:23;;;;;;;57.15;26.40;;;2.60;99.90;;;;;;5013793;28;20022;-76
2021/01/31 01:06:49;;;;;;;55.42;25.85;;;2.60;99.90;;;;;;5013653;28;20036;-74
2021/01/31 01:09:15;;;;;;;49.67;25.42;;;2.60;99.90;;;;;;5013618;28;20101;-74
2021/01/31 01:11:42;;;;;;;49.38;24.92;;;2.60;99.90;;;;;;5013717;28;20033;-74
2021/01/31 01:14:09;;;;;;;47.58;24.52;;;2.60;99.90;;;;;;5013629;28;20044;-74
2021/01/31 01:16:35;;;;;;;50.30;23.40;;;2.70;99.90;;;;;;5013745;28;20427;-75
2021/01/31 01:19:03;;;;;;;45.20;24.55;;;2.70;99.90;;;;;;5013387;28;20030;-75
2021/01/31 01:21:29;;;;;;;48.88;24.75;;;2.70;99.90;;;;;;4995763;28;20443;-75
2021/01/31 01:23:56;;;;;;;46.38;24.17;;;2.70;99.90;;;;;;5013332;28;20025;-75
2021/01/31 01:26:25;;;;;;;49.28;23.83;;;2.70;99.90;;;;;;5013329;28;20048;-75
2021/01/31 01:28:51;;;;;;;45.50;23.67;;;2.70;99.90;;;;;;5013443;28;20420;-75
2021/01/31 01:31:16;;;;;;;47.20;25.27;;;2.70;99.90;;;;;;5013381;28;20022;-75
2021/01/31 01:33:42;;;;;;;48.10;23.75;;;2.70;99.90;;;;;;5013247;28;20053;-75
2021/01/31 01:36:08;;;;;;;43.75;22.50;;;2.70;99.90;;;;;;5013211;28;20036;-74
2021/01/31 01:38:33;;;;;;;44.83;23.20;;;2.70;99.90;;;;;;4995567;28;20489;-74
2021/01/31 01:40:59;;;;;;;51.50;24.50;;;2.80;99.90;;;;;;4995100;28;20068;-73
2021/01/31 01:43:27;;;;;;;45.13;23.55;;;2.70;99.90;;;;;;5013354;28;20785;-74
2021/01/31 01:46:19;;;;;;;45.67;24.70;;;2.80;99.90;;;;;;5013353;28;20026;-75
2021/01/31 01:48:50;;;;;;;49.30;24.90;;;2.80;99.90;;;;;;5008131;28;20034;-74
2021/01/31 01:51:18;;;;;;;51.10;24.52;;;2.80;99.90;;;;;;5012497;28;20372;-74
2021/01/31 01:53:45;;;;;;;45.25;23.85;;;2.80;99.90;;;;;;4995046;28;20432;-74
2021/01/31 01:56:24;;;;;;;42.53;24.30;;;2.80;99.90;;;;;;4994820;28;20052;-74
2021/01/31 01:58:54;;;;;;;44.80;25.25;;;2.80;99.90;;;;;;5012705;28;20923;-74
2021/01/31 02:01:21;;;;;;;42.67;22.67;;;2.80;99.90;;;;;;5012366;28;20028;-73
2021/01/31 02:03:47;;;;;;;41.42;21.90;;;2.90;99.90;;;;;;5012317;28;20026;-74
2021/01/31 02:06:19;;;;;;;43.00;22.20;;;2.90;99.90;;;;;;4994964;28;20100;-74
2021/01/31 02:08:44;;;;;;;42.35;22.35;;;2.90;99.90;;;;;;5012718;28;20014;-74
2021/01/31 02:11:14;;;;;;;38.42;21.38;;;2.80;99.90;;;;;;5012655;28;20026;-74
2021/01/31 02:13:43;;;;;;;39.30;20.80;;;2.90;99.90;;;;;;5012641;28;20018;-74
2021/01/31 02:16:26;;;;;;;37.78;20.65;;;2.90;99.90;;;;;;5012738;28;20101;-77
2021/01/31 02:18:59;;;;;;;35.70;20.63;;;2.90;99.90;;;;;;5012584;28;20033;-78
2021/01/31 02:21:47;;;;;;;35.90;19.95;;;2.90;99.90;;;;;;5012462;28;20025;-78
2021/01/31 02:24:30;;;;;;;32.95;18.38;;;2.90;99.90;;;;;;5012669;28;20025;-78
2021/01/31 02:27:15;;;;;;;31.35;17.75;;;2.90;99.90;;;;;;5012592;28;20060;-78
2021/01/31 02:29:40;;;;;;;32.22;17.95;;;2.90;99.90;;;;;;5012625;28;20037;-79
2021/01/31 02:32:27;;;;;;;31.88;18.08;;;2.80;99.90;;;;;;4995119;28;20120;-78
2021/01/31 02:35:02;;;;;;;35.97;18.38;;;2.80;99.90;;;;;;5012934;28;20867;-78
2021/01/31 02:37:42;;;;;;;30.92;17.75;;;2.80;99.90;;;;;;5012804;28;20392;-78
2021/01/31 02:40:12;;;;;;;33.78;16.98;;;2.70;99.90;;;;;;5017683;28;20033;-78
2021/01/31 02:43:15;;;;;;;28.00;16.50;;;2.70;99.90;;;;;;5020796;28;20029;-78
2021/01/31 02:45:46;;;;;;;25.77;14.45;;;2.70;99.90;;;;;;5013881;28;20033;-78
2021/01/31 02:48:32;;;;;;;24.75;14.77;;;2.70;99.90;;;;;;4994519;28;20053;-74
2021/01/31 02:51:09;;;;;;;24.92;13.52;;;2.70;99.90;;;;;;5011752;28;20432;-74
2021/01/31 02:53:57;;;;;;;19.45;13.00;;;2.60;99.90;;;;;;4994089;28;20090;-74
2021/01/31 02:56:25;;;;;;;22.33;13.43;;;2.60;99.90;;;;;;4994137;28;20121;-74
2021/01/31 02:58:58;;;;;;;21.27;12.80;;;2.60;99.90;;;;;;5011650;28;20512;-78
2021/01/31 03:01:52;;;;;;;23.17;13.40;;;2.50;99.90;;;;;;5012177;28;20033;-79
2021/01/31 03:04:41;;;;;;;24.02;14.48;;;2.40;99.90;;;;;;4995005;28;20076;-78
2021/01/31 03:07:31;;;;;;;24.27;15.35;;;2.50;99.90;;;;;;5011918;28;20029;-79
2021/01/31 03:10:09;;;;;;;26.05;16.00;;;2.40;99.90;;;;;;5012177;28;20357;-79
2021/01/31 03:12:55;;;;;;;30.40;18.35;;;2.40;99.90;;;;;;4994389;28;20377;-79
2021/01/31 03:15:26;;;;;;;26.77;16.90;;;2.30;99.90;;;;;;5012101;28;20022;-79
2021/01/31 03:18:15;;;;;;;29.75;17.33;;;2.30;99.90;;;;;;5012202;28;20076;-78
2021/01/31 03:20:49;;;;;;;30.00;17.70;;;2.30;99.90;;;;;;5012095;28;20096;-79
2021/01/31 03:23:27;;;;;;;34.83;18.83;;;2.30;99.90;;;;;;5012005;28;20084;-78
2021/01/31 03:25:58;;;;;;;36.53;19.80;;;2.30;99.90;;;;;;5011748;28;20041;-78
2021/01/31 03:28:24;;;;;;;41.03;22.00;;;2.20;99.90;;;;;;5011965;28;20030;-78
2021/01/31 03:30:50;;;;;;;40.75;20.58;;;2.20;99.90;;;;;;5012045;28;20026;-79
2021/01/31 03:33:36;;;;;;;37.65;21.10;;;2.10;99.90;;;;;;4994246;28;20023;-78
2021/01/31 03:36:03;;;;;;;37.15;20.50;;;2.00;99.90;;;;;;5011882;28;20037;-79
2021/01/31 03:38:37;;;;;;;34.58;19.08;;;1.90;99.90;;;;;;4994298;28;20018;-78
2021/01/31 03:41:07;;;;;;;40.63;21.17;;;1.80;99.90;;;;;;5012104;28;20029;-78
2021/01/31 03:43:32;;;;;;;35.78;19.00;;;1.70;99.90;;;;;;5011925;28;20041;-78
2021/01/31 03:46:09;;;;;;;30.05;17.70;;;1.60;99.90;;;;;;5011519;28;20026;-79
2021/01/31 03:49:00;;;;;;;31.17;16.83;;;1.50;99.90;;;;;;4994124;28;20026;-78
2021/01/31 03:51:30;;;;;;;33.60;17.17;;;1.40;99.90;;;;;;5011798;28;20026;-79
2021/01/31 03:53:56;;;;;;;27.17;16.77;;;1.30;99.90;;;;;;4994179;28;20026;-79
2021/01/31 03:56:26;;;;;;;34.15;18.45;;;1.20;99.90;;;;;;5011529;28;20026;-79
2021/01/31 03:58:54;;;;;;;33.67;18.48;;;1.10;99.90;;;;;;5011715;28;20129;-79
2021/01/31 04:01:23;;;;;;;28.52;16.65;;;1.10;99.90;;;;;;5011952;28;20022;-79
2021/01/31 04:03:59;;;;;;;30.70;17.13;;;1.00;99.90;;;;;;4994251;28;20412;-79
2021/01/31 04:06:29;;;;;;;32.03;17.95;;;0.90;99.90;;;;;;5015119;28;20473;-79
2021/01/31 04:08:57;;;;;;;30.40;17.08;;;0.80;99.90;;;;;;5015257;28;20032;-78
2021/01/31 04:11:41;;;;;;;30.02;17.30;;;0.80;99.90;;;;;;4997459;28;20025;-78
2021/01/31 04:14:47;;;;;;;34.35;18.75;;;0.70;99.90;;;;;;5015249;28;20105;-78
2021/01/31 04:17:14;;;;;;;31.52;17.88;;;0.60;99.90;;;;;;5014940;28;20026;-79
2021/01/31 04:19:39;;;;;;;35.55;19.98;;;0.50;99.90;;;;;;5014845;28;20076;-79
2021/01/31 04:22:05;;;;;;;33.88;18.88;;;0.50;99.90;;;;;;5015139;28;20563;-79
2021/01/31 04:24:30;;;;;;;37.75;20.40;;;0.50;99.90;;;;;;4997346;28;20022;-79
2021/01/31 04:26:56;;;;;;;33.08;17.80;;;0.40;99.90;;;;;;5014767;28;20026;-79
2021/01/31 04:29:22;;;;;;;29.88;16.85;;;0.40;99.90;;;;;;5014734;28;20341;-79
2021/01/31 04:31:47;;;;;;;30.65;17.38;;;0.30;99.90;;;;;;5014824;28;20033;-79
2021/01/31 04:34:13;;;;;;;32.78;17.15;;;0.30;99.90;;;;;;4997373;28;20026;-79
2021/01/31 04:36:39;;;;;;;34.10;18.98;;;0.30;99.90;;;;;;5014909;28;20030;-80
2021/01/31 04:39:05;;;;;;;34.03;19.55;;;0.30;99.90;;;;;;5014592;28;20121;-79
2021/01/31 04:41:38;;;;;;;32.58;18.73;;;0.20;99.90;;;;;;5014377;28;20084;-79
2021/01/31 04:44:05;;;;;;;35.47;18.35;;;0.20;99.90;;;;;;5016869;28;20022;-79
2021/01/31 04:46:48;;;;;;;33.55;18.25;;;0.20;99.90;;;;;;5017937;28;20022;-75
2021/01/31 04:49:43;;;;;;;29.85;16.80;;;0.20;99.90;;;;;;5015587;28;20024;-75
2021/01/31 04:52:21;;;;;;;32.30;16.70;;;0.10;99.90;;;;;;5014183;28;20030;-74
2021/01/31 04:55:10;;;;;;;24.75;15.18;;;0.10;99.90;;;;;;5013980;28;20048;-74
2021/01/31 04:58:07;;;;;;;30.30;15.68;;;0.10;99.90;;;;;;4996700;28;20056;-79
2021/01/31 05:00:36;;;;;;;24.33;14.70;;;0.10;99.90;;;;;;4994472;28;20034;-79
2021/01/31 05:03:04;;;;;;;25.00;14.75;;;0.00;99.90;;;;;;5014024;28;20029;-79
2021/01/31 05:05:35;;;;;;;24.55;14.93;;;0.00;99.90;;;;;;5014072;28;20050;-79
2021/01/31 05:08:17;;;;;;;24.80;13.93;;;0.00;99.90;;;;;;5014069;28;20041;-75
2021/01/31 05:10:43;;;;;;;24.13;14.45;;;-0.10;99.90;;;;;;5013662;28;20109;-75
2021/01/31 05:13:26;;;;;;;21.55;13.20;;;-0.10;99.90;;;;;;5013576;28;20496;-75
2021/01/31 05:15:58;;;;;;;25.73;14.13;;;-0.10;99.90;;;;;;4994829;28;20083;-76
2021/01/31 05:18:25;;;;;;;22.90;13.80;;;-0.20;99.90;;;;;;4996029;28;20041;-76
2021/01/31 05:20:57;;;;;;;24.23;13.73;;;-0.20;99.90;;;;;;5013546;28;20033;-75
2021/01/31 05:23:24;;;;;;;21.63;12.35;;;-0.20;99.90;;;;;;4995938;28;20029;-76
2021/01/31 05:25:49;;;;;;;20.55;12.00;;;-0.20;99.90;;;;;;5013390;28;20411;-76
2021/01/31 05:28:15;;;;;;;20.40;12.35;;;-0.20;99.90;;;;;;5013259;28;20097;-76
2021/01/31 05:30:44;;;;;;;20.40;12.35;;;-0.20;99.90;;;;;;5013243;28;20385;-76
2021/01/31 05:33:14;;;;;;;16.92;10.82;;;-0.20;99.90;;;;;;5013194;28;20148;-76
2021/01/31 05:35:50;;;;;;;17.20;11.05;;;-0.20;99.90;;;;;;5013125;28;20099;-75
2021/01/31 05:38:33;;;;;;;16.67;10.45;;;-0.20;99.90;;;;;;5013196;28;20157;-75
2021/01/31 05:40:59;;;;;;;15.32;10.05;;;-0.10;99.90;;;;;;4995481;28;20026;-76
2021/01/31 05:43:26;;;;;;;17.38;10.10;;;-0.10;99.90;;;;;;5012991;28;20104;-76
2021/01/31 05:45:52;;;;;;;16.58;10.50;;;-0.10;99.90;;;;;;5012938;28;20033;-74
2021/01/31 05:48:34;;;;;;;14.32;9.70;;;0.00;99.90;;;;;;5012907;28;20021;-75
2021/01/31 05:51:16;;;;;;;14.43;9.53;;;0.00;99.90;;;;;;5013090;28;20600;-75
2021/01/31 05:53:42;;;;;;;15.10;9.70;;;0.00;99.90;;;;;;5013184;28;20030;-75
2021/01/31 05:56:22;;;;;;;16.75;9.43;;;0.00;99.90;;;;;;5013129;28;20733;-75
2021/01/31 05:59:13;;;;;;;19.63;11.90;;;0.00;99.90;;;;;;5012265;28;20137;-75
2021/01/31 06:01:59;;;;;;;18.42;11.90;;;0.00;99.90;;;;;;5007594;28;20401;-75
2021/01/31 06:04:26;;;;;;;15.20;9.45;;;0.00;99.90;;;;;;5012590;28;20072;-75
2021/01/31 06:07:02;;;;;;;13.88;8.73;;;0.10;99.90;;;;;;5012454;28;20368;-75
2021/01/31 06:09:39;;;;;;;14.48;9.15;;;0.10;99.90;;;;;;5012474;28;20029;-76
2021/01/31 06:12:10;;;;;;;13.98;8.88;;;0.20;99.90;;;;;;5012583;28;20480;-76
2021/01/31 06:14:40;;;;;;;12.85;8.63;;;0.20;99.90;;;;;;5013678;28;20440;-75
2021/01/31 06:17:16;;;;;;;14.80;9.43;;;0.30;99.90;;;;;;5033747;28;20022;-80
2021/01/31 06:19:43;;;;;;;16.40;9.02;;;0.30;99.90;;;;;;5033556;28;20104;-81
2021/01/31 06:22:12;;;;;;;11.63;8.10;;;0.30;99.90;;;;;;5031356;28;20022;-81
2021/01/31 06:24:47;;;;;;;12.85;8.55;;;0.30;99.90;;;;;;5015014;28;20057;-82
2021/01/31 06:27:27;;;;;;;13.82;8.50;;;0.40;99.90;;;;;;5014381;28;20109;-81
2021/01/31 06:30:37;;;;;;;14.35;8.50;;;0.40;99.90;;;;;;5013765;28;20417;-83
2021/01/31 06:33:03;;;;;;;12.32;8.25;;;0.50;99.90;;;;;;4972159;28;20037;-82
2021/01/31 06:35:29;;;;;;;13.40;8.68;;;0.50;99.90;;;;;;5011752;28;20026;-82
2021/01/31 06:38:12;;;;;;;14.48;8.65;;;0.60;99.90;;;;;;5014423;28;20406;-81
2021/01/31 06:40:58;;;;;;;14.57;9.48;;;0.60;99.90;;;;;;5022022;28;20037;-82
2021/01/31 06:43:44;;;;;;;12.57;8.20;;;0.70;99.90;;;;;;4984830;28;20041;-82
2021/01/31 06:46:32;;;;;;;12.52;8.38;;;0.80;99.90;;;;;;5031489;28;20029;-82
2021/01/31 06:49:32;;;;;;;15.98;8.55;;;0.80;99.90;;;;;;5031724;28;20017;-81
2021/01/31 06:52:26;;;;;;;15.32;8.65;;;0.90;99.90;;;;;;5029157;28;20049;-82
2021/01/31 06:55:14;;;;;;;13.63;8.70;;;0.90;99.90;;;;;;5029987;28;20052;-82
2021/01/31 06:58:04;;;;;;;14.50;8.20;;;1.10;99.90;;;;;;5030515;28;20045;-82
2021/01/31 07:00:51;;;;;;;13.93;8.88;;;1.10;99.90;;;;;;5031833;28;20037;-82
2021/01/31 07:03:47;;;;;;;12.15;8.35;;;1.20;99.90;;;;;;5032051;28;20053;-82
2021/01/31 07:06:12;;;;;;;13.32;8.77;;;1.30;99.90;;;;;;5032195;28;20025;-83
2021/01/31 07:08:48;;;;;;;13.30;8.63;;;1.40;99.90;;;;;;5032141;28;20532;-83
2021/01/31 07:11:30;;;;;;;14.70;9.27;;;1.50;99.90;;;;;;5032207;28;20100;-82
2021/01/31 07:14:17;;;;;;;14.88;9.43;;;1.50;99.90;;;;;;5014195;28;20061;-82
2021/01/31 07:17:04;;;;;;;14.70;8.38;;;1.60;99.90;;;;;;5033401;28;20460;-83
2021/01/31 07:19:41;;;;;;;14.80;9.57;;;1.60;99.90;;;;;;5032335;28;20021;-82
2021/01/31 07:22:16;;;;;;;15.48;9.90;;;1.60;99.90;;;;;;5031980;28;20030;-83
2021/01/31 07:24:58;;;;;;;14.38;9.40;;;1.60;99.90;;;;;;5032795;28;20044;-81
2021/01/31 07:28:02;;;;;;;16.05;9.93;;;1.70;99.90;;;;;;5031969;28;20063;-80
2021/01/31 07:30:31;;;;;;;11.43;8.75;;;1.80;99.90;;;;;;4982432;28;20061;-80
2021/01/31 07:33:12;;;;;;;12.82;8.43;;;1.80;99.90;;;;;;5020235;28;20048;-81
2021/01/31 07:35:59;;;;;;;15.90;10.13;;;1.90;99.90;;;;;;5031978;28;20033;-80
2021/01/31 07:38:32;;;;;;;11.95;8.02;;;2.00;99.90;;;;;;5021505;28;20132;-80
2021/01/31 07:41:01;;;;;;;12.02;7.97;;;2.10;99.90;;;;;;5014957;28;20032;-80
2021/01/31 07:43:29;;;;;;;13.77;8.43;;;2.10;99.90;;;;;;5015547;28;20049;-82
2021/01/31 07:46:04;;;;;;;13.68;8.65;;;2.20;99.90;;;;;;5014745;28;20030;-82
2021/01/31 07:48:55;;;;;;;11.05;8.35;;;2.40;99.90;;;;;;5015570;28;20482;-82
2021/01/31 07:51:41;;;;;;;22.00;14.00;;;2.40;99.90;;;;;;5014943;28;20089;-81
2021/01/31 07:54:22;;;;;;;11.77;7.78;;;2.60;99.90;;;;;;5007933;28;20476;-82
2021/01/31 07:56:49;;;;;;;14.13;8.80;;;2.60;99.90;;;;;;4997643;28;20128;-83
2021/01/31 07:59:18;;;;;;;14.30;8.95;;;2.70;99.90;;;;;;4999571;28;20030;-80
2021/01/31 08:01:48;;;;;;;11.65;8.18;;;2.80;99.90;;;;;;5015778;28;20404;-84
2021/01/31 08:04:18;;;;;;;12.82;8.55;;;2.80;99.90;;;;;;5016690;28;20109;-84
2021/01/31 08:06:48;;;;;;;15.98;10.55;;;2.90;99.90;;;;;;4998878;28;20033;-84
2021/01/31 08:09:26;;;;;;;12.98;8.32;;;3.00;99.90;;;;;;5016669;28;20053;-85
2021/01/31 08:12:03;;;;;;;13.55;8.88;;;3.10;99.90;;;;;;5016554;28;20050;-85
2021/01/31 08:15:06;;;;;;;12.75;8.43;;;3.30;99.90;;;;;;5016323;28;20022;-85
2021/01/31 08:17:53;;;;;;;12.77;8.32;;;3.40;99.90;;;;;;5016466;28;20065;-85
2021/01/31 08:20:27;;;;;;;13.48;8.32;;;3.70;99.90;;;;;;4998886;28;20034;-86
2021/01/31 08:22:54;;;;;;;11.68;8.40;;;4.00;99.90;;;;;;5016246;28;20026;-84
2021/01/31 08:25:23;;;;;;;15.80;9.68;;;4.30;99.90;;;;;;5016143;28;20052;-85
2021/01/31 08:27:55;;;;;;;12.75;8.07;;;4.60;99.90;;;;;;5014846;28;20068;-79
2021/01/31 08:30:36;;;;;;;15.10;8.90;;;4.80;99.90;;;;;;5014087;28;20518;-78
2021/01/31 08:33:02;;;;;;;13.57;8.18;;;5.10;99.90;;;;;;5014136;28;20026;-79
2021/01/31 08:35:34;;;;;;;13.05;8.38;;;5.50;99.90;;;;;;5013901;28;20540;-78
2021/01/31 08:38:21;;;;;;;16.23;9.30;;;5.90;99.90;;;;;;4996330;28;20381;-80
2021/01/31 08:41:02;;;;;;;11.85;8.52;;;6.20;99.90;;;;;;5013923;28;20468;-79
2021/01/31 08:43:36;;;;;;;17.90;10.13;;;6.40;99.90;;;;;;5013989;28;20033;-79
2021/01/31 08:46:18;;;;;;;15.07;9.80;;;6.40;99.90;;;;;;5014041;28;20037;-79
2021/01/31 08:48:54;;;;;;;16.30;9.23;;;6.40;99.90;;;;;;5013747;28;20077;-79
2021/01/31 08:51:32;;;;;;;15.95;10.32;;;6.50;99.90;;;;;;5013461;28;20392;-79
2021/01/31 08:54:09;;;;;;;14.05;8.82;;;6.50;99.90;;;;;;4997309;28;20095;-85
2021/01/31 08:56:41;;;;;;;15.93;9.85;;;6.60;99.90;;;;;;5015925;28;20101;-85
2021/01/31 08:59:09;;;;;;;;;;;6.50;99.90;;;;;;5016163;28;20512;-86
2021/01/31 09:01:45;;;;;;;16.13;9.45;;;6.40;99.90;;;;;;5015861;28;19949;-86
2021/01/31 09:04:13;;;;;;;18.00;9.80;;;6.40;99.90;;;;;;5015429;28;20025;-80
2021/01/31 09:06:41;;;;;;;16.08;9.35;;;6.20;99.90;;;;;;5013645;28;20022;-79
2021/01/31 09:09:13;;;;;;;15.00;9.60;;;6.20;99.90;;;;;;5014510;28;20022;-78
2021/01/31 09:11:39;;;;;;;12.93;8.52;;;6.10;99.90;;;;;;5013452;28;20022;-77
2021/01/31 09:14:19;;;;;;;12.75;8.23;;;6.00;99.90;;;;;;5013637;28;20031;-78
2021/01/31 09:16:45;;;;;;;13.35;9.10;;;6.00;99.90;;;;;;4995734;28;20507;-78
2021/01/31 09:19:22;;;;;;;16.08;8.80;;;5.80;99.90;;;;;;5013239;28;20038;-78
2021/01/31 09:22:13;;;;;;;13.73;8.75;;;5.70;99.90;;;;;;4995582;28;20029;-78
2021/01/31 09:24:41;;;;;;;13.13;9.02;;;5.60;99.90;;;;;;5004722;28;20046;-79
2021/01/31 09:27:08;;;;;;;19.58;11.65;;;5.50;99.90;;;;;;5015119;28;20026;-78
2021/01/31 09:29:35;;;;;;;18.20;10.50;;;5.50;99.90;;;;;;4995592;28;20069;-79
2021/01/31 09:32:11;;;;;;;15.80;10.20;;;5.70;99.90;;;;;;5018844;28;20037;-77
2021/01/31 09:34:40;;;;;;;18.77;9.98;;;6.00;99.90;;;;;;5013819;28;20018;-78
2021/01/31 09:37:26;;;;;;;16.35;10.50;;;6.50;99.90;;;;;;4995574;28;20034;-78
2021/01/31 09:39:54;;;;;;;18.08;11.27;;;6.80;99.90;;;;;;5012898;28;20033;-77
2021/01/31 09:42:21;;;;;;;13.45;8.88;;;7.20;99.90;;;;;;5012670;28;20033;-77
2021/01/31 09:45:03;;;;;;;17.30;9.88;;;7.50;99.90;;;;;;5012606;28;20025;-78
2021/01/31 09:47:29;;;;;;;15.07;9.73;;;7.90;99.90;;;;;;5012891;28;20142;-79
2021/01/31 09:50:07;;;;;;;12.00;8.88;;;8.00;99.90;;;;;;5013086;28;20276;-78
2021/01/31 09:52:40;;;;;;;14.50;9.68;;;8.10;99.90;;;;;;5012738;28;20018;-78
2021/01/31 09:55:24;;;;;;;;;;;8.30;99.90;;;;;;5013432;28;20022;-78
2021/01/31 09:57:49;;;;;;;14.52;9.65;;;8.50;99.90;;;;;;5012112;28;19917;-78
2021/01/31 10:00:23;;;;;;;12.82;9.32;;;8.90;99.90;;;;;;5012674;28;20041;-78
2021/01/31 10:02:49;;;;;;;15.30;9.95;;;9.00;99.90;;;;;;5016813;28;20036;-77
2021/01/31 10:05:17;;;;;;;14.05;10.23;;;9.10;99.90;;;;;;5015054;28;20034;-78
2021/01/31 10:07:50;;;;;;;12.57;9.18;;;9.20;99.90;;;;;;5013024;28;20495;-78
2021/01/31 10:10:32;;;;;;;12.75;9.30;;;9.40;99.90;;;;;;5027335;28;20022;-78
2021/01/31 10:13:27;;;;;;;12.02;9.07;;;9.60;99.90;;;;;;5029947;28;20055;-77
2021/01/31 10:16:00;;;;;;;14.63;9.52;;;9.50;99.90;;;;;;5013418;28;20052;-77
2021/01/31 10:18:44;;;;;;;14.52;9.68;;;9.20;99.90;;;;;;5014258;28;20073;-79
2021/01/31 10:21:16;;;;;;;14.30;9.73;;;8.80;99.90;;;;;;5030830;28;20013;-78
2021/01/31 10:23:44;;;;;;;15.43;10.57;;;8.50;99.90;;;;;;5030773;28;20112;-77
2021/01/31 10:26:17;;;;;;;16.23;10.68;;;8.30;99.90;;;;;;5031076;28;20036;-77
2021/01/31 10:28:56;;;;;;;15.07;10.65;;;8.10;99.90;;;;;;5015095;28;20026;-77
2021/01/31 10:31:24;;;;;;;18.50;12.30;;;8.10;99.90;;;;;;5030968;28;20014;-78
2021/01/31 10:33:51;;;;;;;32.17;20.40;;;8.10;99.90;;;;;;5030480;28;20515;-77
2021/01/31 10:36:35;;;;;;;17.95;10.93;;;8.10;99.90;;;;;;5012747;28;20025;-77
2021/01/31 10:39:23;;;;;;;15.88;10.27;;;8.20;99.90;;;;;;5030600;28;20028;-77
2021/01/31 10:41:49;;;;;;;16.63;10.38;;;8.20;99.90;;;;;;5030370;28;20028;-78
2021/01/31 10:44:27;;;;;;;16.92;10.50;;;8.30;99.90;;;;;;5030290;28;20021;-78
2021/01/31 10:46:53;;;;;;;16.50;10.32;;;8.30;99.90;;;;;;5030177;28;20029;-77
2021/01/31 10:49:20;;;;;;;16.33;9.65;;;8.30;99.90;;;;;;5012105;28;20030;-78
2021/01/31 10:51:46;;;;;;;13.88;9.43;;;8.20;99.90;;;;;;5012310;28;20047;-77
2021/01/31 10:54:14;;;;;;;14.85;9.48;;;8.10;99.90;;;;;;5030476;28;20032;-77
2021/01/31 10:56:40;;;;;;;15.82;9.95;;;8.00;99.90;;;;;;5012493;28;20033;-79
2021/01/31 10:59:06;;;;;;;15.60;10.15;;;7.80;99.90;;;;;;5030599;28;20100;-76
2021/01/31 11:01:32;;;;;;;15.05;9.35;;;7.70;99.90;;;;;;5030187;28;20088;-78
2021/01/31 11:03:58;;;;;;;13.93;9.43;;;7.50;99.90;;;;;;5030515;28;20037;-77
2021/01/31 11:06:25;;;;;;;12.98;8.98;;;7.30;99.90;;;;;;5011354;28;20513;-77
2021/01/31 11:08:51;;;;;;;16.63;9.98;;;7.20;99.90;;;;;;5030550;28;20017;-78
2021/01/31 11:11:18;;;;;;;16.67;9.48;;;7.00;99.90;;;;;;5030444;28;20022;-78
2021/01/31 11:13:44;;;;;;;15.82;9.85;;;6.90;99.90;;;;;;5030657;28;20032;-78
2021/01/31 11:16:10;;;;;;;19.70;11.35;;;6.70;99.90;;;;;;5034274;28;20025;-77
2021/01/31 11:18:36;;;;;;;19.77;12.52;;;6.60;99.90;;;;;;5033549;28;20025;-77
2021/01/31 11:21:02;;;;;;;19.80;11.25;;;6.50;99.90;;;;;;5015866;28;20013;-78
2021/01/31 11:23:28;;;;;;;17.13;10.90;;;6.40;99.90;;;;;;5016320;28;20224;-78
2021/01/31 11:25:53;;;;;;;18.35;10.98;;;6.20;99.90;;;;;;5033820;28;20119;-77
2021/01/31 11:28:19;;;;;;;20.75;10.20;;;6.00;99.90;;;;;;5034072;28;20021;-77
2021/01/31 11:30:46;;;;;;;16.95;10.57;;;5.90;99.90;;;;;;5034123;28;20025;-78
2021/01/31 11:33:12;;;;;;;16.35;9.80;;;5.90;99.90;;;;;;5033904;28;20033;-78
2021/01/31 11:35:38;;;;;;;15.43;9.45;;;5.80;99.90;;;;;;5034266;28;20032;-78
2021/01/31 11:38:05;;;;;;;17.73;10.18;;;5.80;99.90;;;;;;5034477;28;20033;-78
2021/01/31 11:40:31;;;;;;;17.45;11.32;;;5.80;99.90;;;;;;5033976;28;20459;-77
2021/01/31 11:42:57;;;;;;;20.05;10.25;;;5.80;99.90;;;;;;5034146;28;20029;-77
2021/01/31 11:45:33;;;;;;;18.70;10.65;;;5.80;99.90;;;;;;5034045;28;20033;-80
2021/01/31 11:47:59;;;;;;;16.98;10.52;;;5.80;99.90;;;;;;5034302;28;20033;-77
2021/01/31 11:50:25;;;;;;;20.00;11.07;;;5.80;99.90;;;;;;5034121;28;20029;-78
2021/01/31 11:52:50;;;;;;;21.05;10.00;;;5.90;99.90;;;;;;5034223;28;20037;-80
2021/01/31 11:55:17;;;;;;;15.15;9.82;;;5.80;99.90;;;;;;5015670;28;20026;-78
2021/01/31 11:57:43;;;;;;;19.60;10.70;;;5.70;99.90;;;;;;5015636;28;20054;-78
2021/01/31 12:00:11;;;;;;;15.65;10.40;;;5.60;99.90;;;;;;5034340;28;20029;-79
2021/01/31 12:02:37;;;;;;;14.57;9.55;;;5.60;99.90;;;;;;5016751;28;20116;-84
2021/01/31 12:05:04;;;;;;;14.10;8.82;;;5.70;99.90;;;;;;5017632;28;20044;-79
2021/01/31 12:07:29;;;;;;;16.65;8.93;;;5.60;99.90;;;;;;5033569;28;20029;-80
2021/01/31 12:09:55;;;;;;;14.65;9.07;;;5.50;99.90;;;;;;5034769;28;20029;-77
2021/01/31 12:12:21;;;;;;;14.60;9.30;;;5.40;99.90;;;;;;5034779;28;20017;-78
2021/01/31 12:14:46;;;;;;;22.88;12.45;;;5.20;99.90;;;;;;5032903;28;20075;-79
2021/01/31 12:17:12;;;;;;;31.08;17.20;;;5.00;99.90;;;;;;5017001;28;20025;-84
2021/01/31 12:19:38;;;;;;;15.50;9.50;;;5.00;99.90;;;;;;5035851;28;20033;-83
2021/01/31 12:22:04;;;;;;;15.85;8.98;;;5.00;99.90;;;;;;5035858;28;20025;-83
2021/01/31 12:24:30;;;;;;;13.77;8.60;;;5.00;99.90;;;;;;5033770;28;20026;-79
2021/01/31 12:26:56;;;;;;;15.57;9.57;;;4.90;99.90;;;;;;5035244;28;20028;-80
2021/01/31 12:29:22;;;;;;;15.90;9.00;;;4.80;99.90;;;;;;5016400;28;20075;-79
2021/01/31 12:31:48;;;;;;;15.75;9.30;;;4.90;99.90;;;;;;5034439;28;20026;-78
2021/01/31 12:34:14;;;;;;;15.75;10.32;;;4.80;99.90;;;;;;5034145;28;20025;-79
2021/01/31 12:36:41;;;;;;;14.57;8.95;;;4.80;99.90;;;;;;5016514;28;20033;-80
2021/01/31 12:39:07;;;;;;;15.43;9.05;;;4.80;99.90;;;;;;5034498;28;20029;-77
2021/01/31 12:41:33;;;;;;;16.15;9.77;;;4.70;99.90;;;;;;5034024;28;20037;-81
2021/01/31 12:43:59;;;;;;;16.83;10.02;;;4.70;99.90;;;;;;5034572;28;20029;-79
2021/01/31 12:46:25;;;;;;;16.63;9.40;;;4.70;99.90;;;;;;5033298;28;20037;-81
2021/01/31 12:48:51;;;;;;;17.08;9.10;;;4.70;99.90;;;;;;5033264;28;20026;-79
2021/01/31 12:51:17;;;;;;;16.58;9.45;;;4.80;99.90;;;;;;5033958;28;20018;-82
2021/01/31 12:53:43;;;;;;;18.80;10.32;;;4.70;99.90;;;;;;5016131;28;20089;-80
2021/01/31 12:56:08;;;;;;;19.88;9.90;;;4.70;99.90;;;;;;5034064;28;20104;-80
2021/01/31 12:58:34;;;;;;;18.73;10.07;;;4.60;99.90;;;;;;5033685;28;20143;-79
2021/01/31 13:01:00;;;;;;;20.83;11.65;;;4.60;99.90;;;;;;5034175;28;20037;-79
2021/01/31 13:03:25;;;;;;;21.48;12.95;;;4.50;99.90;;;;;;5023969;28;20476;-79
2021/01/31 13:05:51;;;;;;;23.92;14.13;;;4.50;99.90;;;;;;5028158;28;20030;-81
2021/01/31 13:08:17;;;;;;;18.10;11.80;;;4.40;99.90;;;;;;5031678;28;20029;-80